createdAt,value
2022-11-24T00:01:17.711Z,8.95
2022-11-24T00:03:46.103Z,5.38
2022-11-24T00:06:15.527Z,2.08
2022-11-24T00:08:44.277Z,4.90
2022-11-24T00:11:14.643Z,3.70
2022-11-24T00:13:42.194Z,1.70
2022-11-24T00:16:18.758Z,1.20
2022-11-24T00:18:48.381Z,0.98
2022-11-24T00:21:17.063Z,0.90
2022-11-24T00:23:44.671Z,0.60
2022-11-24T00:26:14.745Z,0.90
2022-11-24T00:28:43.070Z,1.00
2022-11-24T00:31:21.852Z,0.73
2022-11-24T00:33:50.443Z,1.00
2022-11-24T00:36:19.122Z,1.00
2022-11-24T00:38:46.579Z,1.00
2022-11-24T00:41:13.884Z,0.80
2022-11-24T00:43:40.607Z,0.80
2022-11-24T00:46:07.756Z,0.90
2022-11-24T00:48:34.645Z,0.95
2022-11-24T00:51:06.762Z,1.40
2022-11-24T00:53:33.572Z,1.55
2022-11-24T00:56:00.766Z,1.60
2022-11-24T00:58:27.430Z,1.70
2022-11-24T01:00:54.491Z,4.57
2022-11-24T01:03:22.757Z,3.70
2022-11-24T01:05:49.704Z,2.20
2022-11-24T01:08:16.463Z,2.28
2022-11-24T01:10:43.551Z,2.40
2022-11-24T01:13:12.115Z,2.10
2022-11-24T01:15:39.922Z,1.60
2022-11-24T01:18:07.007Z,1.52
2022-11-24T01:20:34.057Z,1.80
2022-11-24T01:23:00.803Z,1.93
2022-11-24T01:25:27.755Z,1.67
2022-11-24T01:27:54.537Z,2.08
2022-11-24T01:30:23.105Z,2.20
2022-11-24T01:32:50.164Z,2.20
2022-11-24T01:35:17.155Z,2.20
2022-11-24T01:37:44.256Z,2.30
2022-11-24T01:40:11.640Z,2.80
2022-11-24T01:42:50.858Z,2.15
2022-11-24T01:45:32.415Z,2.22
2022-11-24T01:48:01.079Z,1.90
2022-11-24T01:50:28.168Z,2.50
2022-11-24T01:52:56.626Z,2.95
2022-11-24T01:55:30.845Z,3.28
2022-11-24T01:58:09.867Z,2.60
2022-11-24T02:00:38.654Z,3.23
2022-11-24T02:03:06.738Z,2.83
2022-11-24T02:05:45.258Z,3.25
2022-11-24T02:08:25.787Z,3.00
2022-11-24T02:10:52.784Z,3.90
2022-11-24T02:13:19.722Z,2.80
2022-11-24T02:15:46.643Z,3.60
2022-11-24T02:18:13.337Z,3.10
2022-11-24T02:20:40.366Z,2.92
2022-11-24T02:23:14.145Z,3.00
2022-11-24T02:26:08.478Z,3.30
2022-11-24T02:28:35.225Z,4.07
2022-11-24T02:31:02.816Z,4.45
2022-11-24T02:33:30.298Z,3.60
2022-11-24T02:35:57.387Z,3.40
2022-11-24T02:38:35.216Z,3.57
2022-11-24T02:41:08.729Z,4.75
2022-11-24T02:43:41.711Z,5.25
2022-11-24T02:46:10.768Z,4.50
2022-11-24T02:48:38.402Z,4.40
2022-11-24T02:51:05.632Z,3.50
2022-11-24T02:53:32.307Z,4.57
2022-11-24T02:55:59.203Z,4.45
2022-11-24T02:58:25.938Z,3.35
2022-11-24T03:00:54.409Z,3.03
2022-11-24T03:03:21.712Z,3.27
2022-11-24T03:05:48.690Z,4.32
2022-11-24T03:08:15.489Z,3.40
2022-11-24T03:10:42.449Z,4.10
2022-11-24T03:13:09.355Z,4.10
2022-11-24T03:15:36.583Z,3.60
2022-11-24T03:18:03.623Z,3.00
2022-11-24T03:20:30.539Z,3.20
2022-11-24T03:22:57.186Z,2.50
2022-11-24T03:25:24.164Z,4.10
2022-11-24T03:27:51.179Z,4.00
2022-11-24T03:30:18.093Z,13.55
2022-11-24T03:32:44.893Z,21.40
2022-11-24T03:35:12.134Z,18.73
2022-11-24T03:37:38.828Z,13.25
2022-11-24T03:40:06.479Z,8.30
2022-11-24T03:42:33.152Z,6.93
2022-11-24T03:45:16.737Z,7.13
2022-11-24T03:47:50.575Z,10.00
2022-11-24T03:50:17.602Z,18.77
2022-11-24T03:52:44.243Z,70.03
2022-11-24T03:55:11.182Z,100.93
2022-11-24T03:57:37.829Z,53.00
2022-11-24T04:00:06.488Z,53.75
2022-11-24T04:02:33.208Z,29.85
2022-11-24T04:05:00.228Z,20.60
2022-11-24T04:07:27.109Z,8.80
2022-11-24T04:09:54.084Z,8.20
2022-11-24T04:12:39.115Z,12.95
2022-11-24T04:15:06.343Z,22.48
2022-11-24T04:17:33.026Z,21.40
2022-11-24T04:19:59.998Z,28.70
2022-11-24T04:22:26.989Z,35.38
2022-11-24T04:24:53.879Z,44.05
2022-11-24T04:27:20.554Z,44.80
2022-11-24T04:29:47.497Z,35.47
2022-11-24T04:32:14.134Z,38.83
2022-11-24T04:34:41.018Z,30.63
2022-11-24T04:37:07.750Z,20.58
2022-11-24T04:39:34.693Z,11.00
2022-11-24T04:42:01.532Z,6.60
2022-11-24T04:44:28.444Z,5.18
2022-11-24T04:46:55.199Z,4.10
2022-11-24T04:49:22.179Z,4.15
2022-11-24T04:51:48.872Z,3.42
2022-11-24T04:54:16.233Z,3.53
2022-11-24T04:56:43.952Z,4.40
2022-11-24T04:59:16.881Z,5.40
2022-11-24T05:01:44.765Z,30.88
2022-11-24T05:04:14.382Z,16.42
2022-11-24T05:06:41.261Z,14.17
2022-11-24T05:09:08.769Z,8.93
2022-11-24T05:11:35.422Z,11.20
2022-11-24T05:14:02.379Z,40.25
2022-11-24T05:16:29.166Z,51.03
2022-11-24T05:18:56.157Z,33.73
2022-11-24T05:21:23.425Z,16.90
2022-11-24T05:23:50.426Z,9.18
2022-11-24T05:26:17.311Z,14.00
2022-11-24T05:28:44.220Z,11.70
2022-11-24T05:31:11.101Z,10.07
2022-11-24T05:33:38.313Z,8.73
2022-11-24T05:36:07.002Z,10.75
2022-11-24T05:38:34.207Z,6.35
2022-11-24T05:41:02.860Z,7.38
2022-11-24T05:43:30.066Z,8.07
2022-11-24T05:46:00.710Z,6.88
2022-11-24T05:48:27.775Z,5.20
2022-11-24T05:50:56.214Z,5.63
2022-11-24T05:53:24.185Z,6.88
2022-11-24T05:55:50.917Z,6.77
2022-11-24T05:58:18.148Z,7.70
2022-11-24T06:00:44.810Z,8.73
2022-11-24T06:03:12.525Z,6.90
2022-11-24T06:05:39.416Z,6.93
2022-11-24T06:08:06.336Z,5.40
2022-11-24T06:10:33.005Z,3.97
2022-11-24T06:13:05.031Z,4.63
2022-11-24T06:15:31.762Z,4.43
2022-11-24T06:17:58.734Z,3.65
2022-11-24T06:20:29.921Z,3.97
2022-11-24T06:22:59.991Z,5.63
2022-11-24T06:25:27.778Z,4.40
2022-11-24T06:27:55.051Z,6.57
2022-11-24T06:30:21.668Z,7.05
2022-11-24T06:32:49.854Z,5.20
2022-11-24T06:35:17.130Z,3.70
2022-11-24T06:37:45.701Z,5.07
2022-11-24T06:40:12.829Z,5.10
2022-11-24T06:42:39.809Z,4.38
2022-11-24T06:45:09.379Z,14.30
2022-11-24T06:47:37.087Z,40.25
2022-11-24T06:50:04.454Z,32.55
2022-11-24T06:52:31.447Z,34.05
2022-11-24T06:54:58.201Z,32.03
2022-11-24T06:57:25.147Z,79.60
2022-11-24T06:59:52.130Z,59.17
2022-11-24T07:02:19.040Z,51.15
2022-11-24T07:04:45.798Z,39.47
2022-11-24T07:07:12.779Z,29.27
2022-11-24T07:09:39.547Z,17.00
2022-11-24T07:12:06.958Z,14.63
2022-11-24T07:14:34.005Z,21.92
2022-11-24T07:17:02.576Z,36.25
2022-11-24T07:19:29.362Z,81.80
2022-11-24T07:21:56.747Z,92.67
2022-11-24T07:24:23.470Z,49.38
2022-11-24T07:26:50.486Z,22.40
2022-11-24T07:29:17.191Z,12.10
2022-11-24T07:31:45.944Z,7.35
2022-11-24T07:34:14.669Z,3.40
2022-11-24T07:36:42.682Z,2.50
2022-11-24T07:39:09.388Z,2.10
2022-11-24T07:41:36.303Z,2.20
2022-11-24T07:44:03.107Z,2.30
2022-11-24T07:46:30.102Z,2.17
2022-11-24T07:48:56.785Z,2.75
2022-11-24T07:51:24.249Z,3.05
2022-11-24T07:53:51.024Z,2.78
2022-11-24T07:56:17.932Z,3.25
2022-11-24T07:58:49.702Z,4.17
2022-11-24T08:01:18.978Z,4.40
2022-11-24T08:03:46.451Z,4.85
2022-11-24T08:06:37.494Z,6.10
2022-11-24T08:09:00.963Z,18.05
2022-11-24T08:11:28.434Z,44.10
2022-11-24T08:13:55.963Z,44.22
2022-11-24T08:16:23.087Z,32.22
2022-11-24T08:18:52.342Z,29.50
2022-11-24T08:21:19.339Z,29.10
2022-11-24T08:23:46.557Z,34.70
2022-11-24T08:26:17.806Z,34.05
2022-11-24T08:28:46.388Z,28.52
2022-11-24T08:31:16.073Z,28.70
2022-11-24T08:33:43.469Z,31.02
2022-11-24T08:36:14.781Z,29.00
2022-11-24T08:38:42.230Z,17.63
2022-11-24T08:41:11.754Z,11.27
2022-11-24T08:43:39.546Z,28.88
2022-11-24T08:46:11.593Z,25.35
2022-11-24T08:48:38.684Z,11.93
2022-11-24T08:51:15.199Z,4.50
2022-11-24T08:53:42.771Z,2.90
2022-11-24T08:56:10.868Z,2.80
2022-11-24T08:58:38.187Z,3.28
2022-11-24T09:01:05.039Z,10.83
2022-11-24T09:03:32.113Z,41.58
2022-11-24T09:05:58.880Z,54.42
2022-11-24T09:08:26.039Z,52.78
2022-11-24T09:10:52.870Z,25.35
2022-11-24T09:13:19.819Z,7.03
2022-11-24T09:15:46.475Z,31.70
2022-11-24T09:18:13.624Z,58.42
2022-11-24T09:20:40.731Z,25.98
2022-11-24T09:23:07.828Z,22.95
2022-11-24T09:25:34.519Z,11.53
2022-11-24T09:28:01.511Z,35.70
2022-11-24T09:30:28.554Z,59.60
2022-11-24T09:32:56.682Z,20.70
2022-11-24T09:35:23.782Z,9.65
2022-11-24T09:37:51.235Z,7.03
2022-11-24T09:40:18.176Z,13.70
2022-11-24T09:42:53.263Z,8.38
2022-11-24T09:46:03.297Z,3.35
2022-11-24T09:48:40.101Z,5.10
2022-11-24T09:51:11.328Z,7.10
2022-11-24T09:53:44.655Z,4.80
2022-11-24T09:56:23.721Z,3.75
2022-11-24T09:59:04.974Z,3.50
2022-11-24T10:01:41.413Z,2.83
2022-11-24T10:04:37.252Z,3.33
2022-11-24T10:07:19.507Z,2.40
2022-11-24T10:10:24.517Z,1.50
2022-11-24T10:13:26.693Z,1.38
2022-11-24T10:15:53.651Z,2.13
2022-11-24T10:18:45.288Z,9.83
2022-11-24T10:21:33.703Z,7.82
2022-11-24T10:24:25.685Z,12.20
2022-11-24T10:27:09.618Z,12.95
2022-11-24T10:29:40.551Z,13.45
2022-11-24T10:32:15.208Z,11.67
2022-11-24T10:34:45.633Z,11.88
2022-11-24T10:37:21.519Z,5.82
2022-11-24T10:40:21.350Z,4.20
2022-11-24T10:42:56.895Z,29.55
2022-11-24T10:45:23.696Z,12.13
2022-11-24T10:47:50.782Z,5.65
2022-11-24T10:50:22.214Z,6.78
2022-11-24T10:52:56.954Z,3.58
2022-11-24T10:55:23.858Z,2.40
2022-11-24T10:57:50.767Z,2.10
2022-11-24T11:00:20.171Z,3.00
2022-11-24T11:03:09.804Z,1.85
2022-11-24T11:05:43.152Z,2.80
2022-11-24T11:08:10.402Z,1.50
2022-11-24T11:10:37.213Z,2.20
2022-11-24T11:13:30.533Z,5.55
2022-11-24T11:15:58.650Z,7.07
2022-11-24T11:18:31.972Z,8.07
2022-11-24T11:21:04.574Z,3.28
2022-11-24T11:23:35.261Z,3.17
2022-11-24T11:26:31.500Z,4.10
2022-11-24T11:35:03.585Z,2.33
2022-11-24T11:37:33.011Z,1.70
2022-11-24T11:40:00.494Z,2.15
2022-11-24T11:45:24.043Z,1.80
2022-11-24T11:48:03.143Z,5.03
2022-11-24T11:51:21.300Z,3.20
2022-11-24T11:53:45.345Z,1.80
2022-11-24T11:56:36.830Z,1.83
2022-11-24T11:59:24.045Z,2.53
2022-11-24T12:01:56.790Z,3.85
2022-11-24T12:04:58.219Z,4.17
2022-11-24T12:07:43.310Z,2.10
2022-11-24T12:10:28.869Z,14.80
2022-11-24T12:13:14.048Z,32.17
2022-11-24T12:15:53.516Z,29.77
2022-11-24T12:18:58.917Z,26.03
2022-11-24T12:21:35.641Z,9.18
2022-11-24T12:24:24.233Z,31.58
2022-11-24T12:26:56.946Z,22.05
2022-11-24T12:29:33.261Z,20.73
2022-11-24T12:32:25.378Z,13.30
2022-11-24T12:35:19.670Z,4.78
2022-11-24T12:38:16.050Z,3.78
2022-11-24T12:41:39.785Z,25.42
2022-11-24T12:43:53.312Z,3.17
2022-11-24T12:46:48.647Z,6.73
2022-11-24T12:49:35.935Z,9.00
2022-11-24T12:52:10.121Z,18.77
2022-11-24T12:54:40.495Z,17.52
2022-11-24T12:57:16.329Z,12.65
2022-11-24T12:59:58.089Z,16.53
2022-11-24T13:02:31.267Z,24.05
2022-11-24T13:05:18.865Z,20.20
2022-11-24T13:07:49.296Z,10.18
2022-11-24T13:10:55.470Z,10.07
2022-11-24T13:13:14.420Z,13.80
2022-11-24T13:16:20.295Z,11.73
2022-11-24T13:18:53.888Z,4.32
2022-11-24T13:21:40.430Z,3.97
2022-11-24T13:24:17.556Z,7.60
2022-11-24T13:26:48.336Z,4.20
2022-11-24T13:29:25.498Z,2.35
2022-11-24T13:31:52.691Z,4.68
2022-11-24T13:34:45.621Z,3.80
2022-11-24T13:37:28.851Z,2.75
2022-11-24T13:40:11.804Z,9.53
2022-11-24T13:43:02.839Z,2.28
2022-11-24T13:45:38.718Z,1.75
2022-11-24T13:48:28.489Z,3.00
2022-11-24T13:50:58.239Z,2.25
2022-11-24T13:53:57.143Z,1.47
2022-11-24T13:56:26.429Z,7.63
2022-11-24T13:58:59.257Z,7.43
2022-11-24T14:01:28.647Z,5.07
2022-11-24T14:07:08.327Z,2.13
2022-11-24T14:09:47.233Z,18.60
2022-11-24T14:12:24.725Z,8.23
2022-11-24T14:14:55.544Z,4.70
2022-11-24T14:17:24.766Z,2.95
2022-11-24T14:19:53.620Z,23.67
2022-11-24T14:22:27.735Z,23.45
2022-11-24T14:24:57.345Z,7.72
2022-11-24T14:27:34.122Z,14.23
2022-11-24T14:30:18.325Z,4.50
2022-11-24T14:32:59.717Z,5.47
2022-11-24T14:35:34.066Z,15.10
2022-11-24T14:38:05.420Z,14.05
2022-11-24T14:40:53.071Z,5.22
2022-11-24T14:43:30.930Z,7.15
2022-11-24T14:46:07.520Z,6.25
2022-11-24T14:48:46.639Z,2.53
2022-11-24T14:51:30.299Z,2.80
2022-11-24T14:54:12.343Z,2.38
2022-11-24T14:56:39.889Z,4.00
2022-11-24T14:59:24.739Z,2.80
2022-11-24T15:01:51.777Z,2.30
2022-11-24T15:07:21.288Z,2.30
2022-11-24T15:09:48.170Z,1.98
2022-11-24T15:12:29.235Z,2.70
2022-11-24T15:15:16.133Z,2.90
2022-11-24T15:18:02.347Z,2.50
2022-11-24T15:20:36.131Z,2.75
2022-11-24T15:23:25.174Z,2.90
2022-11-24T15:26:18.127Z,3.40
2022-11-24T15:28:47.730Z,3.03
2022-11-24T15:31:15.114Z,3.00
2022-11-24T15:33:42.382Z,2.55
2022-11-24T15:36:11.506Z,2.65
2022-11-24T15:38:38.211Z,2.47
2022-11-24T15:41:16.263Z,2.13
2022-11-24T15:43:43.029Z,2.47
2022-11-24T15:46:10.376Z,2.65
2022-11-24T15:48:37.363Z,2.53
2022-11-24T15:51:07.820Z,2.60
2022-11-24T15:53:37.662Z,2.00
2022-11-24T15:56:08.497Z,2.42
2022-11-24T15:58:35.255Z,2.70
2022-11-24T16:01:02.170Z,2.92
2022-11-24T16:06:24.780Z,3.60
2022-11-24T16:08:53.562Z,3.65
2022-11-24T16:11:21.145Z,3.58
2022-11-24T16:13:52.413Z,3.50
2022-11-24T16:16:22.604Z,3.72
2022-11-24T16:18:49.496Z,3.90
2022-11-24T16:21:16.640Z,3.95
2022-11-24T16:23:43.415Z,5.97
2022-11-24T16:26:10.434Z,7.03
2022-11-24T16:28:37.280Z,6.22
2022-11-24T16:31:04.451Z,5.57
2022-11-24T16:33:31.374Z,6.00
2022-11-24T16:35:58.683Z,6.47
2022-11-24T16:38:25.389Z,6.05
2022-11-24T16:40:54.641Z,4.63
2022-11-24T16:43:21.645Z,3.30
2022-11-24T16:46:19.075Z,4.60
2022-11-24T16:48:47.683Z,3.38
2022-11-24T16:51:15.618Z,3.30
2022-11-24T16:53:42.945Z,3.15
2022-11-24T16:56:10.322Z,3.00
2022-11-24T16:58:38.773Z,2.95
2022-11-24T17:01:10.513Z,2.97
2022-11-24T17:03:38.516Z,3.15
2022-11-24T17:06:08.338Z,3.25
2022-11-24T17:08:39.321Z,3.13
2022-11-24T17:11:10.444Z,3.10
2022-11-24T17:13:37.660Z,2.50
2022-11-24T17:16:09.835Z,2.30
2022-11-24T17:18:37.200Z,2.40
2022-11-24T17:21:09.453Z,2.10
2022-11-24T17:23:36.983Z,2.60
2022-11-24T17:26:06.696Z,2.30
2022-11-24T17:28:34.533Z,3.22
2022-11-24T17:31:27.674Z,3.00
2022-11-24T17:33:57.047Z,3.00
2022-11-24T17:36:23.778Z,2.40
2022-11-24T17:38:50.777Z,2.10
2022-11-24T17:41:18.796Z,4.53
2022-11-24T17:43:57.798Z,3.80
2022-11-24T17:46:29.226Z,4.53
2022-11-24T17:48:56.955Z,6.68
2022-11-24T17:51:25.768Z,8.75
2022-11-24T17:53:54.312Z,7.35
2022-11-24T17:56:30.212Z,6.68
2022-11-24T17:58:59.407Z,4.87
2022-11-24T18:01:28.656Z,3.97
2022-11-24T18:03:55.981Z,4.00
2022-11-24T18:06:25.318Z,2.90
2022-11-24T18:08:54.053Z,3.65
2022-11-24T18:11:31.088Z,9.47
2022-11-24T18:14:02.135Z,7.07
2022-11-24T18:16:31.266Z,10.82
2022-11-24T18:19:08.342Z,14.80
2022-11-24T18:21:40.667Z,14.88
2022-11-24T18:24:08.996Z,12.17
2022-11-24T18:26:36.196Z,8.43
2022-11-24T18:29:03.396Z,5.80
2022-11-24T18:31:31.265Z,5.60
2022-11-24T18:33:59.278Z,4.10
2022-11-24T18:36:30.297Z,4.17
2022-11-24T18:39:00.784Z,5.22
2022-11-24T18:41:27.488Z,6.85
2022-11-24T18:43:54.430Z,5.95
2022-11-24T18:46:21.244Z,5.07
2022-11-24T18:48:48.266Z,5.83
2022-11-24T18:51:14.979Z,4.13
2022-11-24T18:53:43.566Z,3.55
2022-11-24T18:56:17.364Z,2.85
2022-11-24T18:58:45.042Z,6.68
2022-11-24T19:01:17.406Z,7.30
2022-11-24T19:03:55.834Z,11.23
2022-11-24T19:06:31.988Z,18.00
2022-11-24T19:09:04.741Z,10.63
2022-11-24T19:11:35.476Z,6.70
2022-11-24T19:14:04.589Z,4.60
2022-11-24T19:16:31.397Z,6.10
2022-11-24T19:19:00.146Z,4.72
2022-11-24T19:21:27.871Z,6.97
2022-11-24T19:23:58.518Z,10.60
2022-11-24T19:26:28.057Z,8.02
2022-11-24T19:28:55.341Z,6.90
2022-11-24T19:31:22.045Z,6.70
2022-11-24T19:33:49.084Z,4.80
2022-11-24T19:36:18.943Z,4.60
2022-11-24T19:38:51.809Z,4.75
2022-11-24T19:41:20.914Z,4.63
2022-11-24T19:43:49.044Z,5.68
2022-11-24T19:46:17.615Z,5.85
2022-11-24T19:48:46.995Z,6.43
2022-11-24T19:51:16.364Z,10.70
2022-11-24T19:53:43.561Z,7.20
2022-11-24T19:56:16.300Z,8.30
2022-11-24T19:58:43.674Z,6.53
2022-11-24T20:01:16.793Z,6.97
2022-11-24T20:03:45.009Z,8.10
2022-11-24T20:06:13.451Z,8.17
2022-11-24T20:08:41.686Z,9.02
2022-11-24T20:11:14.478Z,12.13
2022-11-24T20:13:43.411Z,11.85
2022-11-24T20:16:18.894Z,11.20
2022-11-24T20:18:47.765Z,7.43
2022-11-24T20:21:20.708Z,5.22
2022-11-24T20:23:54.163Z,4.70
2022-11-24T20:26:25.197Z,6.35
2022-11-24T20:28:54.625Z,7.57
2022-11-24T20:31:24.235Z,7.33
2022-11-24T20:33:51.930Z,8.15
2022-11-24T20:36:21.647Z,7.18
2022-11-24T20:38:49.976Z,6.18
2022-11-24T20:41:18.042Z,5.30
2022-11-24T20:43:46.299Z,6.30
2022-11-24T20:46:19.149Z,6.65
2022-11-24T20:48:46.737Z,9.15
2022-11-24T20:51:32.466Z,7.70
2022-11-24T20:54:02.245Z,11.48
2022-11-24T20:56:32.233Z,10.23
2022-11-24T20:59:01.253Z,10.73
2022-11-24T21:01:35.404Z,12.82
2022-11-24T21:04:03.338Z,11.88
2022-11-24T21:06:32.430Z,8.77
2022-11-24T21:09:04.120Z,10.23
2022-11-24T21:11:31.485Z,13.05
2022-11-24T21:13:58.897Z,13.02
2022-11-24T21:16:28.200Z,12.48
2022-11-24T21:19:01.189Z,9.00
2022-11-24T21:21:35.007Z,9.20
2022-11-24T21:24:10.209Z,10.95
2022-11-24T21:26:38.983Z,10.52
2022-11-24T21:29:07.052Z,11.60
2022-11-24T21:31:38.849Z,8.32
2022-11-24T21:34:08.015Z,6.17
2022-11-24T21:36:36.307Z,5.53
2022-11-24T21:39:03.922Z,5.45
2022-11-24T21:41:33.067Z,4.07
2022-11-24T21:44:00.225Z,4.40
2022-11-24T21:46:28.971Z,7.80
2022-11-24T21:48:55.901Z,6.28
2022-11-24T21:51:22.802Z,5.00
2022-11-24T21:53:49.769Z,4.80
2022-11-24T21:56:19.646Z,4.72
2022-11-24T21:58:52.151Z,4.30
2022-11-24T22:01:21.080Z,4.40
2022-11-24T22:03:49.721Z,4.38
2022-11-24T22:06:19.066Z,4.70
2022-11-24T22:08:48.641Z,8.38
2022-11-24T22:11:20.925Z,5.90
2022-11-24T22:13:50.140Z,5.10
2022-11-24T22:16:24.540Z,4.50
2022-11-24T22:18:52.148Z,4.05
2022-11-24T22:21:23.750Z,4.30
2022-11-24T22:23:55.131Z,4.30
2022-11-24T22:26:24.539Z,4.93
2022-11-24T22:28:54.616Z,4.93
2022-11-24T22:31:27.244Z,3.70
2022-11-24T22:33:55.838Z,5.40
2022-11-24T22:36:25.152Z,4.60
2022-11-24T22:38:57.318Z,6.40
2022-11-24T22:41:24.626Z,7.38
2022-11-24T22:43:51.871Z,5.10
2022-11-24T22:46:24.217Z,6.78
2022-11-24T22:48:52.984Z,6.20
2022-11-24T22:51:32.355Z,5.50
2022-11-24T22:54:01.602Z,6.20
2022-11-24T22:56:29.685Z,5.68
2022-11-24T22:58:57.536Z,3.40
2022-11-24T23:01:25.439Z,3.87
2022-11-24T23:03:56.032Z,3.80
2022-11-24T23:06:24.642Z,3.42
2022-11-24T23:08:52.725Z,3.25
2022-11-24T23:11:27.362Z,3.22
2022-11-24T23:14:00.448Z,2.90
2022-11-24T23:16:28.933Z,3.53
2022-11-24T23:18:56.196Z,4.80
2022-11-24T23:21:31.964Z,5.47
2022-11-24T23:24:00.970Z,5.50
2022-11-24T23:26:30.733Z,5.60
2022-11-24T23:28:57.710Z,5.50
2022-11-24T23:31:29.078Z,5.25
2022-11-24T23:33:58.765Z,6.18
2022-11-24T23:36:25.669Z,7.38
2022-11-24T23:38:52.639Z,7.60
2022-11-24T23:41:22.834Z,8.32
2022-11-24T23:43:50.185Z,7.25
2022-11-24T23:46:20.488Z,6.53
2022-11-24T23:48:49.372Z,7.15
2022-11-24T23:51:16.335Z,7.33
2022-11-24T23:53:44.169Z,8.10
2022-11-24T23:56:19.836Z,7.60
2022-11-24T23:58:46.782Z,5.57
